KBAB/BAB METAR and TAF weather

Enter ICAO airport designator
Station Type Date Time Source
KBAB METAR 2021/03/08 14:58 UTC NOAA

KBAB 081458Z AUTO 13015KT 10SM CLR 07/04 A3009 RMK AO2 SLP193 T00690037 52025 $


Station Type Date Time Source
KBAB Decoded METAR 2021/03/08 14:58 UTC NOAA

Marysville, Beale Air Force Base, CA, United States (KBAB) 39-08N 121-26W
Mar 08, 2021 - 09:58 AM EST / 2021.03.08 1458 UTC
Wind: from the SE (130 degrees) at 17 MPH (15 KT):0
Visibility: 10 mile(s):0
Sky conditions: clear
Temperature: 44.4 F (6.9 C)
Dew Point: 38.7 F (3.7 C)
Relative Humidity: 80%
Pressure (altimeter): 30.09 in. Hg (1018 hPa)
Pressure tendency: 0.07 inches (2.5 hPa) higher than three hours ago
ob: KBAB 081458Z AUTO 13015KT 10SM CLR 07/04 A3009 RMK AO2 SLP193 T00690037 52025
cycle: 15

Station Type Date Time Source
KBAB TAF 2021/03/08 14:57 UTC NOAA

TAF TAF
AMD KBAB 081450Z 0814/0917 18010G18KT 9999 SKC QNH3005INS
BECMG 0817/0818 18010G20KT 9999 BKN050 620502 QNH3017INS
BECMG 0819/0820 18010G20KT 9999 OVC050 620408 QNH3015INS
TEMPO 0900/0903 -SHRA
BECMG 0904/0905 18009KT 9999 SCT020 BKN100 QNH3011INS TX14/0823Z TN05/0815Z

Example: see airport list